createdAt,value
2023-03-12T00:02:28.293Z,2.95
2023-03-12T00:05:33.079Z,2.50
2023-03-12T00:08:38.282Z,2.40
2023-03-12T00:11:43.298Z,2.60
2023-03-12T00:14:47.746Z,3.20
2023-03-12T00:17:52.131Z,2.65
2023-03-12T00:20:56.804Z,2.70
2023-03-12T00:24:01.469Z,2.47
2023-03-12T00:27:07.470Z,2.70
2023-03-12T00:30:13.041Z,2.63
2023-03-12T00:33:18.053Z,2.80
2023-03-12T00:36:27.078Z,3.00
2023-03-12T00:39:32.480Z,2.90
2023-03-12T00:42:37.250Z,3.10
2023-03-12T00:45:42.067Z,3.08
2023-03-12T00:48:47.008Z,3.10
2023-03-12T00:51:51.414Z,3.20
2023-03-12T00:54:58.814Z,2.72
2023-03-12T00:58:03.306Z,2.83
2023-03-12T01:01:08.206Z,2.75
2023-03-12T01:04:13.564Z,2.55
2023-03-12T01:07:17.937Z,3.17
2023-03-12T01:10:23.220Z,2.72
2023-03-12T01:13:28.385Z,2.53
2023-03-12T01:16:33.155Z,3.10
2023-03-12T01:19:38.254Z,2.83
2023-03-12T01:22:44.108Z,3.22
2023-03-12T01:25:49.620Z,3.10
2023-03-12T01:28:54.045Z,3.00
2023-03-12T01:31:58.892Z,3.13
2023-03-12T01:35:04.075Z,2.90
2023-03-12T01:38:14.135Z,3.08
2023-03-12T01:41:19.580Z,2.70
2023-03-12T01:44:24.528Z,2.78
2023-03-12T01:47:32.290Z,3.08
2023-03-12T01:50:39.297Z,2.60
2023-03-12T01:53:49.392Z,3.10
2023-03-12T01:56:55.971Z,2.90
2023-03-12T02:00:11.679Z,2.67
2023-03-12T02:03:20.646Z,2.97
2023-03-12T02:06:50.126Z,2.80
2023-03-12T02:09:55.165Z,2.50
2023-03-12T02:12:59.998Z,2.25
2023-03-12T02:16:05.419Z,2.22
2023-03-12T02:19:44.586Z,2.38
2023-03-12T02:23:03.066Z,2.90
2023-03-12T02:26:09.132Z,2.65
2023-03-12T02:29:15.693Z,2.30
2023-03-12T02:32:39.498Z,2.40
2023-03-12T02:35:47.774Z,2.35
2023-03-12T02:38:54.452Z,2.47
2023-03-12T02:42:00.372Z,2.25
2023-03-12T02:45:06.219Z,1.90
2023-03-12T02:48:10.671Z,2.25
2023-03-12T02:51:15.364Z,2.17
2023-03-12T02:54:20.986Z,2.10
2023-03-12T02:57:26.285Z,1.90
2023-03-12T03:00:32.267Z,1.90
2023-03-12T03:03:37.350Z,2.10
2023-03-12T03:06:43.881Z,2.17
2023-03-12T03:09:49.608Z,2.28
2023-03-12T03:12:54.836Z,1.85
2023-03-12T03:16:01.926Z,2.30
2023-03-12T03:19:07.390Z,2.25
2023-03-12T03:22:12.498Z,2.20
2023-03-12T03:25:18.192Z,2.63
2023-03-12T03:28:25.661Z,2.33
2023-03-12T03:31:30.572Z,2.20
2023-03-12T03:34:35.806Z,2.20
2023-03-12T03:37:40.778Z,2.38
2023-03-12T03:40:46.109Z,2.42
2023-03-12T03:43:51.142Z,2.03
2023-03-12T03:46:58.308Z,2.10
2023-03-12T03:50:04.806Z,2.50
2023-03-12T03:53:10.174Z,2.60
2023-03-12T03:56:16.208Z,2.38
2023-03-12T03:59:24.654Z,2.35
2023-03-12T04:02:29.376Z,2.28
2023-03-12T04:05:34.687Z,2.42
2023-03-12T04:08:39.646Z,2.55
2023-03-12T04:11:48.025Z,2.58
2023-03-12T04:14:53.561Z,2.97
2023-03-12T04:17:58.374Z,2.70
2023-03-12T04:21:07.822Z,2.50
2023-03-12T04:24:17.655Z,2.35
2023-03-12T04:27:23.013Z,2.75
2023-03-12T04:30:28.285Z,2.47
2023-03-12T04:33:36.753Z,2.30
2023-03-12T04:36:42.195Z,1.98
2023-03-12T04:39:46.707Z,2.33
2023-03-12T04:42:51.856Z,2.53
2023-03-12T04:45:57.887Z,2.13
2023-03-12T04:49:04.325Z,2.33
2023-03-12T04:52:11.333Z,2.35
2023-03-12T04:55:15.990Z,2.60
2023-03-12T04:58:22.174Z,2.40
2023-03-12T05:01:33.555Z,2.05
2023-03-12T05:04:41.055Z,2.10
2023-03-12T05:07:45.871Z,2.33
2023-03-12T05:10:50.482Z,2.17
2023-03-12T05:13:56.062Z,2.13
2023-03-12T05:17:01.346Z,2.10
2023-03-12T05:20:06.543Z,2.20
2023-03-12T05:23:11.567Z,3.00
2023-03-12T05:26:32.536Z,2.60
2023-03-12T05:29:46.822Z,2.35
2023-03-12T05:32:52.682Z,2.53
2023-03-12T05:35:58.179Z,2.30
2023-03-12T05:39:03.296Z,2.60
2023-03-12T05:42:10.018Z,2.90
2023-03-12T05:45:15.202Z,2.10
2023-03-12T05:48:25.912Z,2.45
2023-03-12T05:51:30.794Z,2.78
2023-03-12T05:54:35.710Z,3.40
2023-03-12T05:57:42.045Z,2.95
2023-03-12T06:00:47.045Z,2.90
2023-03-12T06:03:54.733Z,2.38
2023-03-12T06:07:00.881Z,3.20
2023-03-12T06:10:09.086Z,2.60
2023-03-12T06:13:13.715Z,3.30
2023-03-12T06:16:23.307Z,3.72
2023-03-12T06:19:31.101Z,3.40
2023-03-12T06:22:42.020Z,2.95
2023-03-12T06:25:47.965Z,3.40
2023-03-12T06:28:54.329Z,2.83
2023-03-12T06:31:58.962Z,3.13
2023-03-12T06:35:05.806Z,3.25
2023-03-12T06:38:10.485Z,3.10
2023-03-12T06:41:19.386Z,3.17
2023-03-12T06:44:24.211Z,3.10
2023-03-12T06:47:29.219Z,2.70
2023-03-12T06:50:34.204Z,3.55
2023-03-12T06:53:42.113Z,2.70
2023-03-12T06:56:47.316Z,4.00
2023-03-12T06:59:52.245Z,3.42
2023-03-12T07:02:57.109Z,3.13
2023-03-12T07:06:02.362Z,2.90
2023-03-12T07:09:07.089Z,3.15
2023-03-12T07:12:11.820Z,2.70
2023-03-12T07:15:16.794Z,2.50
2023-03-12T07:18:21.165Z,2.97
2023-03-12T07:21:26.430Z,2.80
2023-03-12T07:24:31.248Z,2.72
2023-03-12T07:27:35.936Z,3.72
2023-03-12T07:30:41.618Z,2.67
2023-03-12T07:33:46.268Z,3.08
2023-03-12T07:36:51.042Z,2.92
2023-03-12T07:39:56.230Z,2.50
2023-03-12T07:43:00.687Z,2.70
2023-03-12T07:46:05.470Z,3.08
2023-03-12T07:49:10.172Z,3.10
2023-03-12T07:52:15.611Z,2.95
2023-03-12T07:55:20.380Z,4.25
2023-03-12T07:58:25.305Z,3.13
2023-03-12T08:01:32.269Z,3.30
2023-03-12T08:04:36.885Z,2.40
2023-03-12T08:07:41.439Z,2.97
2023-03-12T08:10:45.797Z,2.60
2023-03-12T08:13:50.159Z,2.70
2023-03-12T08:16:54.478Z,2.65
2023-03-12T08:19:59.223Z,3.08
2023-03-12T08:23:04.103Z,3.00
2023-03-12T08:26:08.855Z,3.42
2023-03-12T08:29:13.732Z,3.60
2023-03-12T08:32:18.541Z,3.20
2023-03-12T08:35:23.417Z,3.20
2023-03-12T08:38:28.255Z,3.42
2023-03-12T08:41:33.065Z,3.13
2023-03-12T08:44:37.691Z,2.85
2023-03-12T08:47:44.641Z,3.85
2023-03-12T08:50:49.787Z,3.63
2023-03-12T08:53:54.135Z,3.33
2023-03-12T08:56:58.804Z,3.28
2023-03-12T09:00:06.053Z,3.00
2023-03-12T09:03:14.011Z,3.30
2023-03-12T09:06:19.678Z,2.90
2023-03-12T09:09:24.212Z,3.42
2023-03-12T09:12:28.911Z,2.97
2023-03-12T09:15:34.143Z,3.55
2023-03-12T09:18:40.087Z,3.67
2023-03-12T09:21:44.949Z,4.35
2023-03-12T09:24:50.139Z,3.58
2023-03-12T09:27:54.988Z,3.38
2023-03-12T09:31:03.606Z,3.35
2023-03-12T09:34:08.716Z,3.50
2023-03-12T09:37:13.683Z,3.33
2023-03-12T09:40:24.157Z,2.78
2023-03-12T09:43:34.625Z,3.70
2023-03-12T09:46:51.015Z,3.65
2023-03-12T09:50:05.484Z,3.30
2023-03-12T09:53:39.348Z,3.60
2023-03-12T09:56:44.849Z,3.20
2023-03-12T09:59:53.032Z,3.60
2023-03-12T10:03:11.256Z,3.72
2023-03-12T10:06:22.056Z,3.78
2023-03-12T10:09:46.375Z,4.60
2023-03-12T10:13:22.711Z,4.30
2023-03-12T10:17:03.530Z,4.32
2023-03-12T10:20:39.967Z,4.20
2023-03-12T10:24:00.352Z,3.60
2023-03-12T10:27:17.112Z,4.50
2023-03-12T10:30:26.187Z,4.70
2023-03-12T10:33:57.250Z,4.95
2023-03-12T10:37:16.614Z,4.50
2023-03-12T10:40:35.785Z,5.43
2023-03-12T10:43:43.703Z,6.43
2023-03-12T10:47:00.885Z,5.60
2023-03-12T10:50:20.673Z,5.20
2023-03-12T10:53:33.004Z,4.97
2023-03-12T10:56:53.847Z,5.28
2023-03-12T11:00:11.989Z,6.43
2023-03-12T11:03:21.806Z,8.23
2023-03-12T11:06:30.838Z,6.65
2023-03-12T11:09:36.256Z,7.32
2023-03-12T11:12:52.098Z,7.65
2023-03-12T11:16:17.267Z,6.97
2023-03-12T11:19:34.493Z,7.18
2023-03-12T11:22:39.226Z,6.47
2023-03-12T11:26:05.678Z,7.30
2023-03-12T11:29:33.639Z,7.88
2023-03-12T11:32:47.832Z,9.30
2023-03-12T11:36:31.430Z,6.88
2023-03-12T11:39:57.265Z,6.85
2023-03-12T11:43:29.349Z,7.03
2023-03-12T11:47:24.445Z,8.20
2023-03-12T11:50:44.738Z,7.65
2023-03-12T11:54:37.911Z,6.82
2023-03-12T11:58:24.020Z,6.80
2023-03-12T12:02:05.736Z,8.25
2023-03-12T12:05:28.576Z,7.28
2023-03-12T12:08:52.367Z,6.85
2023-03-12T12:12:51.007Z,7.88
2023-03-12T12:16:26.583Z,7.15
2023-03-12T12:19:59.259Z,6.20
2023-03-12T12:23:33.163Z,5.53
2023-03-12T12:26:46.706Z,4.57
2023-03-12T12:30:21.794Z,5.43
2023-03-12T12:37:38.306Z,4.78
2023-03-12T12:40:54.717Z,5.00
2023-03-12T12:44:31.398Z,4.20
2023-03-12T12:47:48.933Z,5.32
2023-03-12T12:50:55.509Z,4.22
2023-03-12T12:54:21.980Z,4.38
2023-03-12T12:57:45.249Z,3.65
2023-03-12T13:00:53.167Z,4.65
2023-03-12T13:04:09.733Z,4.72
2023-03-12T13:07:20.564Z,4.28
2023-03-12T13:10:34.660Z,4.20
2023-03-12T13:13:39.777Z,3.95
2023-03-12T13:16:47.247Z,4.38
2023-03-12T13:20:01.535Z,4.10
2023-03-12T13:24:06.575Z,3.85
2023-03-12T13:27:32.139Z,4.57
2023-03-12T13:30:40.321Z,3.78
2023-03-12T13:33:48.617Z,4.22
2023-03-12T13:37:02.568Z,3.92
2023-03-12T13:40:29.532Z,3.88
2023-03-12T13:43:39.881Z,4.80
2023-03-12T13:46:46.790Z,4.57
2023-03-12T13:50:15.468Z,4.75
2023-03-12T13:53:40.393Z,4.07
2023-03-12T13:56:59.096Z,4.38
2023-03-12T14:00:20.357Z,4.63
2023-03-12T14:03:39.886Z,3.63
2023-03-12T14:07:14.513Z,3.63
2023-03-12T14:10:52.629Z,4.00
2023-03-12T14:14:18.950Z,5.53
2023-03-12T14:17:27.245Z,4.70
2023-03-12T14:20:37.135Z,4.30
2023-03-12T14:23:54.262Z,3.55
2023-03-12T14:27:02.488Z,3.00
2023-03-12T14:30:16.528Z,3.03
2023-03-12T14:33:22.188Z,4.05
2023-03-12T14:36:36.412Z,5.13
2023-03-12T14:39:56.719Z,3.75
2023-03-12T14:43:01.674Z,3.00
2023-03-12T14:46:19.458Z,4.38
2023-03-12T14:49:24.071Z,4.55
2023-03-12T14:52:30.588Z,4.10
2023-03-12T14:55:38.652Z,3.95
2023-03-12T14:58:47.531Z,3.45
2023-03-12T15:01:59.088Z,3.38
2023-03-12T15:05:06.237Z,3.17
2023-03-12T15:08:12.993Z,4.18
2023-03-12T15:11:24.571Z,3.53
2023-03-12T15:14:35.443Z,4.03
2023-03-12T15:17:40.179Z,3.00
2023-03-12T15:20:47.300Z,3.28
2023-03-12T15:23:52.553Z,3.63
2023-03-12T15:26:57.321Z,3.17
2023-03-12T15:30:22.297Z,3.75
2023-03-12T15:33:28.828Z,3.45
2023-03-12T15:36:45.045Z,3.97
2023-03-12T15:39:53.718Z,3.75
2023-03-12T15:43:03.448Z,4.72
2023-03-12T15:46:12.266Z,3.88
2023-03-12T15:49:28.328Z,4.07
2023-03-12T15:52:36.006Z,3.85
2023-03-12T15:55:44.356Z,3.10
2023-03-12T15:59:24.594Z,3.58
2023-03-12T16:02:52.525Z,3.88
2023-03-12T16:05:57.944Z,4.10
2023-03-12T16:09:04.225Z,2.92
2023-03-12T16:12:11.295Z,3.15
2023-03-12T16:15:22.697Z,3.90
2023-03-12T16:18:27.609Z,3.33
2023-03-12T16:21:32.402Z,3.92
2023-03-12T16:24:37.576Z,6.03
2023-03-12T16:27:53.945Z,4.80
2023-03-12T16:30:58.604Z,3.67
2023-03-12T16:34:03.298Z,4.03
2023-03-12T16:37:12.796Z,3.30
2023-03-12T16:40:31.160Z,3.50
2023-03-12T16:43:37.449Z,2.83
2023-03-12T16:46:44.482Z,4.07
2023-03-12T16:49:49.138Z,3.55
2023-03-12T16:52:55.609Z,3.70
2023-03-12T16:56:02.004Z,4.82
2023-03-12T16:59:33.279Z,2.80
2023-03-12T17:02:39.002Z,4.40
2023-03-12T17:05:44.308Z,4.47
2023-03-12T17:08:50.318Z,4.03
2023-03-12T17:11:55.535Z,4.30
2023-03-12T17:15:01.397Z,3.80
2023-03-12T17:18:09.231Z,3.58
2023-03-12T17:21:17.316Z,3.58
2023-03-12T17:24:27.904Z,3.80
2023-03-12T17:27:33.171Z,3.80
2023-03-12T17:30:38.211Z,3.28
2023-03-12T17:33:45.261Z,4.00
2023-03-12T17:36:50.041Z,4.88
2023-03-12T17:39:54.726Z,3.58
2023-03-12T17:42:59.593Z,3.35
2023-03-12T17:46:09.432Z,3.58
2023-03-12T17:49:13.928Z,4.05
2023-03-12T17:52:18.971Z,3.25
2023-03-12T17:55:23.971Z,3.63
2023-03-12T17:58:28.959Z,3.35
2023-03-12T18:01:33.583Z,3.03
2023-03-12T18:04:38.029Z,2.60
2023-03-12T18:07:42.564Z,3.30
2023-03-12T18:10:48.961Z,3.00
2023-03-12T18:13:53.661Z,3.25
2023-03-12T18:16:59.468Z,2.83
2023-03-12T18:20:09.608Z,3.05
2023-03-12T18:23:15.811Z,3.25
2023-03-12T18:26:21.473Z,3.60
2023-03-12T18:29:26.992Z,2.67
2023-03-12T18:32:31.902Z,3.20
2023-03-12T18:35:36.932Z,3.40
2023-03-12T18:38:41.405Z,4.05
2023-03-12T18:41:46.405Z,3.00
2023-03-12T18:44:51.177Z,2.78
2023-03-12T18:47:56.815Z,4.63
2023-03-12T18:51:01.524Z,3.28
2023-03-12T18:54:06.115Z,3.67
2023-03-12T18:57:12.427Z,3.33
2023-03-12T19:00:18.121Z,3.17
2023-03-12T19:03:23.747Z,3.70
2023-03-12T19:06:29.699Z,3.25
2023-03-12T19:09:39.476Z,4.05
2023-03-12T19:12:53.675Z,2.85
2023-03-12T19:16:01.731Z,3.03
2023-03-12T19:19:08.223Z,3.47
2023-03-12T19:22:12.468Z,3.33
2023-03-12T19:25:17.083Z,3.33
2023-03-12T19:28:22.093Z,2.95
2023-03-12T19:31:26.982Z,3.90
2023-03-12T19:34:31.454Z,3.58
2023-03-12T19:37:35.809Z,3.15
2023-03-12T19:40:40.436Z,3.25
2023-03-12T19:43:45.900Z,2.83
2023-03-12T19:46:50.632Z,2.97
2023-03-12T19:49:55.071Z,2.97
2023-03-12T19:52:59.757Z,3.08
2023-03-12T19:56:05.367Z,3.13
2023-03-12T19:59:10.818Z,3.10
2023-03-12T20:02:16.081Z,4.00
2023-03-12T20:05:20.985Z,3.20
2023-03-12T20:08:31.007Z,3.30
2023-03-12T20:11:35.857Z,2.72
2023-03-12T20:14:42.684Z,2.50
2023-03-12T20:17:47.307Z,3.08
2023-03-12T20:20:51.806Z,3.10
2023-03-12T20:23:57.413Z,2.53
2023-03-12T20:27:02.288Z,2.92
2023-03-12T20:30:09.661Z,2.58
2023-03-12T20:33:14.140Z,2.92
2023-03-12T20:36:19.017Z,3.13
2023-03-12T20:39:23.632Z,3.97
2023-03-12T20:42:28.286Z,3.85
2023-03-12T20:45:34.152Z,3.60
2023-03-12T20:48:39.071Z,3.78
2023-03-12T20:51:44.762Z,3.20
2023-03-12T20:54:49.251Z,3.42
2023-03-12T20:57:54.089Z,3.05
2023-03-12T21:01:04.399Z,3.25
2023-03-12T21:04:08.985Z,3.72
2023-03-12T21:07:13.432Z,3.30
2023-03-12T21:10:18.420Z,3.13
2023-03-12T21:13:23.954Z,4.10
2023-03-12T21:16:30.190Z,2.65
2023-03-12T21:19:35.253Z,3.42
2023-03-12T21:22:40.675Z,3.15
2023-03-12T21:25:45.379Z,2.55
2023-03-12T21:28:50.138Z,3.33
2023-03-12T21:31:54.870Z,3.08
2023-03-12T21:34:59.691Z,3.25
2023-03-12T21:38:04.240Z,3.80
2023-03-12T21:41:12.936Z,3.30
2023-03-12T21:44:17.526Z,2.65
2023-03-12T21:47:22.337Z,3.50
2023-03-12T21:50:26.678Z,2.47
2023-03-12T21:53:31.740Z,3.55
2023-03-12T21:56:36.267Z,3.60
2023-03-12T21:59:41.016Z,3.17
2023-03-12T22:02:45.896Z,3.90
2023-03-12T22:05:51.984Z,3.47
2023-03-12T22:08:56.837Z,2.95
2023-03-12T22:12:01.822Z,3.08
2023-03-12T22:15:08.274Z,3.17
2023-03-12T22:18:12.933Z,2.95
2023-03-12T22:21:22.954Z,3.15
2023-03-12T22:24:27.452Z,3.75
2023-03-12T22:27:31.969Z,3.30
2023-03-12T22:30:36.615Z,3.20
2023-03-12T22:33:40.997Z,3.80
2023-03-12T22:36:45.477Z,3.22
2023-03-12T22:39:51.309Z,2.88
2023-03-12T22:42:57.481Z,3.38
2023-03-12T22:46:02.288Z,3.72
2023-03-12T22:49:06.771Z,3.85
2023-03-12T22:52:11.116Z,3.50
2023-03-12T22:55:15.763Z,3.50
2023-03-12T22:58:20.437Z,3.55
2023-03-12T23:01:25.619Z,3.15
2023-03-12T23:04:29.976Z,2.90
2023-03-12T23:07:34.676Z,3.08
2023-03-12T23:10:39.199Z,2.90
2023-03-12T23:13:45.668Z,3.15
2023-03-12T23:16:49.980Z,2.70
2023-03-12T23:19:54.709Z,2.85
2023-03-12T23:22:59.452Z,2.67
2023-03-12T23:26:04.434Z,3.03
2023-03-12T23:29:12.389Z,3.25
2023-03-12T23:32:17.006Z,2.80
2023-03-12T23:35:21.558Z,3.30
2023-03-12T23:38:26.969Z,3.58
2023-03-12T23:41:31.734Z,2.90
2023-03-12T23:44:36.584Z,2.92
2023-03-12T23:47:41.397Z,2.97
2023-03-12T23:50:45.810Z,3.80
2023-03-12T23:53:54.564Z,3.05
2023-03-12T23:56:58.804Z,3.08
